sensor_id;sensor_type;location;lat;lon;timestamp;pressure;altitude;pressure_sealevel;temperature;humidity
829;BME280;396;52.558;13.188;2024-02-26T00:00:15;99916.78;;;1.81;98.11
829;BME280;396;52.558;13.188;2024-02-26T00:02:42;99913.06;;;1.82;99.14
829;BME280;396;52.558;13.188;2024-02-26T00:05:09;99909.34;;;1.88;98.48
829;BME280;396;52.558;13.188;2024-02-26T00:07:35;99899.47;;;1.94;98.29
829;BME280;396;52.558;13.188;2024-02-26T00:10:05;99910.47;;;1.97;97.67
829;BME280;396;52.558;13.188;2024-02-26T00:12:32;99899.47;;;1.94;97.89
829;BME280;396;52.558;13.188;2024-02-26T00:14:58;99894.44;;;2.02;97.38
829;BME280;396;52.558;13.188;2024-02-26T00:17:25;99895.19;;;1.88;98.17
829;BME280;396;52.558;13.188;2024-02-26T00:19:52;99887.41;;;1.76;98.55
829;BME280;396;52.558;13.188;2024-02-26T00:22:19;99898.34;;;1.74;98.53
829;BME280;396;52.558;13.188;2024-02-26T00:24:47;99896.19;;;1.71;99.26
829;BME280;396;52.558;13.188;2024-02-26T00:27:15;99891.94;;;1.75;99.29
829;BME280;396;52.558;13.188;2024-02-26T00:29:41;99887.94;;;1.73;99.08
829;BME280;396;52.558;13.188;2024-02-26T00:32:08;99882.53;;;1.63;97.38
829;BME280;396;52.558;13.188;2024-02-26T00:34:35;99887.56;;;1.59;96.78
829;BME280;396;52.558;13.188;2024-02-26T00:37:02;99884.66;;;1.61;96.73
829;BME280;396;52.558;13.188;2024-02-26T00:39:28;99882.31;;;1.69;94.93
829;BME280;396;52.558;13.188;2024-02-26T00:41:55;99878.78;;;1.64;94.26
829;BME280;396;52.558;13.188;2024-02-26T00:44:23;99877.94;;;1.53;95.94
829;BME280;396;52.558;13.188;2024-02-26T00:46:50;99872.09;;;1.56;96.59
829;BME280;396;52.558;13.188;2024-02-26T00:49:16;99883.59;;;1.62;96.99
829;BME280;396;52.558;13.188;2024-02-26T00:51:43;99878.53;;;1.60;96.37
829;BME280;396;52.558;13.188;2024-02-26T00:54:10;99881.63;;;1.42;96.89
829;BME280;396;52.558;13.188;2024-02-26T00:56:36;99881.88;;;1.45;96.80
829;BME280;396;52.558;13.188;2024-02-26T00:59:03;99872.59;;;1.53;97.32
829;BME280;396;52.558;13.188;2024-02-26T01:01:31;99868.84;;;1.49;98.32
829;BME280;396;52.558;13.188;2024-02-26T01:03:58;99867.78;;;1.50;98.05
829;BME280;396;52.558;13.188;2024-02-26T01:06:24;99873.84;;;1.40;96.13
829;BME280;396;52.558;13.188;2024-02-26T01:08:51;99870.38;;;1.35;96.07
829;BME280;396;52.558;13.188;2024-02-26T01:11:18;99870.81;;;1.21;96.33
829;BME280;396;52.558;13.188;2024-02-26T01:13:44;99869.75;;;1.22;96.56
829;BME280;396;52.558;13.188;2024-02-26T01:16:11;99880.47;;;1.33;96.62
829;BME280;396;52.558;13.188;2024-02-26T01:18:39;99876.16;;;1.21;96.68
829;BME280;396;52.558;13.188;2024-02-26T01:21:06;99867.06;;;1.17;97.84
829;BME280;396;52.558;13.188;2024-02-26T01:23:34;99869.22;;;1.20;97.71
829;BME280;396;52.558;13.188;2024-02-26T01:26:00;99869.50;;;1.24;97.50
829;BME280;396;52.558;13.188;2024-02-26T01:28:28;99874.59;;;1.31;97.82
829;BME280;396;52.558;13.188;2024-02-26T01:30:54;99866.06;;;1.29;96.31
829;BME280;396;52.558;13.188;2024-02-26T01:33:21;99868.50;;;1.35;95.68
829;BME280;396;52.558;13.188;2024-02-26T01:35:49;99869.03;;;1.37;96.58
829;BME280;396;52.558;13.188;2024-02-26T01:38:16;99874.59;;;1.31;97.81
829;BME280;396;52.558;13.188;2024-02-26T01:40:43;99872.22;;;1.34;97.76
829;BME280;396;52.558;13.188;2024-02-26T01:43:09;99860.50;;;1.35;97.75
829;BME280;396;52.558;13.188;2024-02-26T01:45:36;99861.53;;;1.29;97.84
829;BME280;396;52.558;13.188;2024-02-26T01:48:03;99859.38;;;1.26;99.00
829;BME280;396;52.558;13.188;2024-02-26T01:50:30;99861.78;;;1.27;99.01
829;BME280;396;52.558;13.188;2024-02-26T01:53:01;99861.84;;;1.38;98.34
829;BME280;396;52.558;13.188;2024-02-26T01:55:28;99862.94;;;1.42;98.21
829;BME280;396;52.558;13.188;2024-02-26T01:57:55;99873.56;;;1.37;98.76
829;BME280;396;52.558;13.188;2024-02-26T02:00:21;99864.22;;;1.34;98.50
829;BME280;396;52.558;13.188;2024-02-26T02:02:49;99866.56;;;1.25;98.37
829;BME280;396;52.558;13.188;2024-02-26T02:05:16;99864.38;;;1.17;99.24
829;BME280;396;52.558;13.188;2024-02-26T02:07:43;99861.22;;;1.20;99.11
829;BME280;396;52.558;13.188;2024-02-26T02:10:11;99856.34;;;1.12;96.64
829;BME280;396;52.558;13.188;2024-02-26T02:12:38;99859.56;;;1.14;97.03
829;BME280;396;52.558;13.188;2024-02-26T02:15:06;99855.91;;;1.25;96.72
829;BME280;396;52.558;13.188;2024-02-26T02:17:33;99861.19;;;1.15;97.17
829;BME280;396;52.558;13.188;2024-02-26T02:19:59;99859.28;;;1.11;97.52
829;BME280;396;52.558;13.188;2024-02-26T02:22:27;99865.91;;;1.08;97.55
829;BME280;396;52.558;13.188;2024-02-26T02:24:54;99861.09;;;1.05;97.02
829;BME280;396;52.558;13.188;2024-02-26T02:27:21;99863.56;;;1.12;96.59
829;BME280;396;52.558;13.188;2024-02-26T02:29:47;99856.22;;;0.97;96.24
829;BME280;396;52.558;13.188;2024-02-26T02:32:16;99867.75;;;1.03;96.55
829;BME280;396;52.558;13.188;2024-02-26T02:34:43;99858.69;;;1.04;96.86
829;BME280;396;52.558;13.188;2024-02-26T02:37:11;99868.47;;;0.93;96.75
829;BME280;396;52.558;13.188;2024-02-26T02:39:39;99865.06;;;0.97;97.29
829;BME280;396;52.558;13.188;2024-02-26T02:42:07;99862.91;;;0.94;96.70
829;BME280;396;52.558;13.188;2024-02-26T02:44:34;99862.09;;;0.94;96.07
829;BME280;396;52.558;13.188;2024-02-26T02:47:00;99860.72;;;0.91;96.66
829;BME280;396;52.558;13.188;2024-02-26T02:49:27;99862.31;;;0.92;97.24
829;BME280;396;52.558;13.188;2024-02-26T02:51:53;99867.72;;;0.97;97.88
829;BME280;396;52.558;13.188;2024-02-26T02:54:22;99867.47;;;0.99;97.72
829;BME280;396;52.558;13.188;2024-02-26T02:56:50;99867.47;;;0.99;97.29
829;BME280;396;52.558;13.188;2024-02-26T02:59:17;99868.53;;;0.98;97.54
829;BME280;396;52.558;13.188;2024-02-26T03:01:44;99865.31;;;1.01;97.16
829;BME280;396;52.558;13.188;2024-02-26T03:04:10;99875.78;;;1.08;97.19
829;BME280;396;52.558;13.188;2024-02-26T03:06:37;99871.13;;;0.93;99.13
829;BME280;396;52.558;13.188;2024-02-26T03:09:03;99866.97;;;1.02;98.96
829;BME280;396;52.558;13.188;2024-02-26T03:11:30;99864.31;;;1.07;98.47
829;BME280;396;52.558;13.188;2024-02-26T03:13:58;99876.03;;;1.06;98.52
829;BME280;396;52.558;13.188;2024-02-26T03:16:25;99880.81;;;1.04;98.82
829;BME280;396;52.558;13.188;2024-02-26T03:18:51;99881.88;;;1.03;98.28
829;BME280;396;52.558;13.188;2024-02-26T03:21:18;99874.44;;;1.05;98.10
829;BME280;396;52.558;13.188;2024-02-26T03:23:45;99873.34;;;1.06;97.82
829;BME280;396;52.558;13.188;2024-02-26T03:26:11;99869.09;;;1.05;97.53
829;BME280;396;52.558;13.188;2024-02-26T03:28:39;99869.78;;;0.90;95.80
829;BME280;396;52.558;13.188;2024-02-26T03:31:07;99863.81;;;0.78;95.58
829;BME280;396;52.558;13.188;2024-02-26T03:33:35;99858.75;;;0.77;96.25
829;BME280;396;52.558;13.188;2024-02-26T03:36:02;99863.03;;;0.78;97.14
829;BME280;396;52.558;13.188;2024-02-26T03:38:29;99868.34;;;0.78;97.45
829;BME280;396;52.558;13.188;2024-02-26T03:40:56;99865.72;;;0.83;96.99
829;BME280;396;52.558;13.188;2024-02-26T03:43:23;99876.41;;;0.88;96.93
829;BME280;396;52.558;13.188;2024-02-26T03:45:49;99866.50;;;0.78;97.05
829;BME280;396;52.558;13.188;2024-02-26T03:48:17;99875.84;;;0.81;97.25
829;BME280;396;52.558;13.188;2024-02-26T03:50:44;99883.88;;;0.86;97.57
829;BME280;396;52.558;13.188;2024-02-26T03:53:11;99881.69;;;0.78;97.14
829;BME280;396;52.558;13.188;2024-02-26T03:55:38;99881.59;;;0.67;96.63
829;BME280;396;52.558;13.188;2024-02-26T03:58:07;99879.97;;;0.66;97.00
829;BME280;396;52.558;13.188;2024-02-26T04:00:33;99887.50;;;0.74;96.80
829;BME280;396;52.558;13.188;2024-02-26T04:03:00;99898.22;;;0.80;96.82
829;BME280;396;52.558;13.188;2024-02-26T04:05:28;99892.94;;;0.85;96.92
829;BME280;396;52.558;13.188;2024-02-26T04:07:55;99895.53;;;0.80;97.96
829;BME280;396;52.558;13.188;2024-02-26T04:10:21;99895.53;;;0.80;98.38
829;BME280;396;52.558;13.188;2024-02-26T04:12:48;99890.16;;;0.74;97.77
829;BME280;396;52.558;13.188;2024-02-26T04:15:15;99890.13;;;0.69;97.49
829;BME280;396;52.558;13.188;2024-02-26T04:17:42;99893.94;;;0.79;97.22
829;BME280;396;52.558;13.188;2024-02-26T04:20:13;99899.72;;;0.70;97.88
829;BME280;396;52.558;13.188;2024-02-26T04:22:42;99906.63;;;0.66;97.36
829;BME280;396;52.558;13.188;2024-02-26T04:25:09;99911.44;;;0.69;97.21
829;BME280;396;52.558;13.188;2024-02-26T04:27:36;99905.31;;;0.69;97.43
829;BME280;396;52.558;13.188;2024-02-26T04:30:04;99910.91;;;0.67;97.03
829;BME280;396;52.558;13.188;2024-02-26T04:32:31;99912.22;;;0.65;97.00
829;BME280;396;52.558;13.188;2024-02-26T04:34:58;99922.69;;;0.71;97.71
829;BME280;396;52.558;13.188;2024-02-26T04:37:24;99920.00;;;0.71;98.49
829;BME280;396;52.558;13.188;2024-02-26T04:39:57;99917.88;;;0.73;98.63
829;BME280;396;52.558;13.188;2024-02-26T04:42:24;99916.78;;;0.69;99.60
829;BME280;396;52.558;13.188;2024-02-26T04:44:50;99922.72;;;0.77;99.82
829;BME280;396;52.558;13.188;2024-02-26T04:47:17;99920.91;;;0.82;99.74
829;BME280;396;52.558;13.188;2024-02-26T04:49:44;99918.28;;;0.87;99.50
829;BME280;396;52.558;13.188;2024-02-26T04:52:11;99920.72;;;0.89;99.32
829;BME280;396;52.558;13.188;2024-02-26T04:54:38;99926.72;;;0.79;99.57
829;BME280;396;52.558;13.188;2024-02-26T04:57:06;99922.72;;;0.77;100.00
829;BME280;396;52.558;13.188;2024-02-26T04:59:32;99928.06;;;0.77;100.00
829;BME280;396;52.558;13.188;2024-02-26T05:01:59;99924.81;;;0.74;100.00
829;BME280;396;52.558;13.188;2024-02-26T05:04:26;99923.03;;;0.80;100.00
829;BME280;396;52.558;13.188;2024-02-26T05:06:52;99928.94;;;0.87;99.99
829;BME280;396;52.558;13.188;2024-02-26T05:09:19;99937.16;;;0.81;99.99
829;BME280;396;52.558;13.188;2024-02-26T05:11:46;99940.81;;;0.74;99.77
829;BME280;396;52.558;13.188;2024-02-26T05:14:14;99947.19;;;0.73;99.44
829;BME280;396;52.558;13.188;2024-02-26T05:16:41;99948.84;;;0.80;98.67
829;BME280;396;52.558;13.188;2024-02-26T05:19:07;99944.34;;;0.80;97.72
829;BME280;396;52.558;13.188;2024-02-26T05:21:34;99945.59;;;0.72;97.49
829;BME280;396;52.558;13.188;2024-02-26T05:24:01;99954.88;;;0.70;97.65
829;BME280;396;52.558;13.188;2024-02-26T05:26:27;99951.38;;;0.64;97.70
829;BME280;396;52.558;13.188;2024-02-26T05:28:54;99948.66;;;0.59;97.61
829;BME280;396;52.558;13.188;2024-02-26T05:31:26;99945.44;;;0.57;96.83
829;BME280;396;52.558;13.188;2024-02-26T05:33:54;99954.47;;;0.56;97.42
829;BME280;396;52.558;13.188;2024-02-26T05:36:21;99952.09;;;0.55;97.68
829;BME280;396;52.558;13.188;2024-02-26T05:38:48;99959.88;;;0.61;97.58
829;BME280;396;52.558;13.188;2024-02-26T05:41:15;99963.06;;;0.58;97.28
829;BME280;396;52.558;13.188;2024-02-26T05:43:45;99962.75;;;0.55;97.79
829;BME280;396;52.558;13.188;2024-02-26T05:46:12;99957.16;;;0.56;97.65
829;BME280;396;52.558;13.188;2024-02-26T05:48:40;99963.06;;;0.58;98.03
829;BME280;396;52.558;13.188;2024-02-26T05:51:06;99968.38;;;0.58;97.67
829;BME280;396;52.558;13.188;2024-02-26T05:53:33;99963.28;;;0.57;97.21
829;BME280;396;52.558;13.188;2024-02-26T05:56:00;99972.91;;;0.58;98.53
829;BME280;396;52.558;13.188;2024-02-26T05:58:26;99980.19;;;0.67;98.42
829;BME280;396;52.558;13.188;2024-02-26T06:00:53;99977.28;;;0.69;99.20
829;BME280;396;52.558;13.188;2024-02-26T06:03:20;99981.31;;;0.71;98.96
829;BME280;396;52.558;13.188;2024-02-26T06:05:47;99981.84;;;0.73;99.38
829;BME280;396;52.558;13.188;2024-02-26T06:08:14;99987.66;;;0.70;99.86
829;BME280;396;52.558;13.188;2024-02-26T06:10:41;99985.09;;;0.75;99.89
829;BME280;396;52.558;13.188;2024-02-26T06:13:07;99980.50;;;0.71;100.00
829;BME280;396;52.558;13.188;2024-02-26T06:15:34;99992.03;;;0.77;100.00
829;BME280;396;52.558;13.188;2024-02-26T06:18:01;99990.34;;;0.70;100.00
829;BME280;396;52.558;13.188;2024-02-26T06:20:27;99988.78;;;0.74;100.00
829;BME280;396;52.558;13.188;2024-02-26T06:22:55;99994.56;;;0.66;100.00
829;BME280;396;52.558;13.188;2024-02-26T06:25:22;99992.50;;;0.73;100.00
829;BME280;396;52.558;13.188;2024-02-26T06:27:49;99994.88;;;0.70;100.00
829;BME280;396;52.558;13.188;2024-02-26T06:30:15;99994.44;;;0.78;100.00
829;BME280;396;52.558;13.188;2024-02-26T06:32:42;99999.16;;;0.71;100.00
829;BME280;396;52.558;13.188;2024-02-26T06:35:08;100000.31;;;0.80;100.00
829;BME280;396;52.558;13.188;2024-02-26T06:37:37;100001.16;;;0.86;100.00
829;BME280;396;52.558;13.188;2024-02-26T06:40:06;100011.13;;;0.95;99.86
829;BME280;396;52.558;13.188;2024-02-26T06:42:33;100013.50;;;0.92;98.85
829;BME280;396;52.558;13.188;2024-02-26T06:45:00;100012.16;;;0.89;98.51
829;BME280;396;52.558;13.188;2024-02-26T06:47:26;100017.97;;;0.86;99.73
829;BME280;396;52.558;13.188;2024-02-26T06:49:53;100017.06;;;1.03;99.30
829;BME280;396;52.558;13.188;2024-02-26T06:52:23;100016.31;;;1.07;99.54
829;BME280;396;52.558;13.188;2024-02-26T06:54:50;100016.84;;;1.09;99.70
829;BME280;396;52.558;13.188;2024-02-26T06:57:19;100016.38;;;1.12;99.67
829;BME280;396;52.558;13.188;2024-02-26T06:59:46;100022.28;;;1.19;100.00
829;BME280;396;52.558;13.188;2024-02-26T07:02:13;100022.28;;;1.19;100.00
829;BME280;396;52.558;13.188;2024-02-26T07:04:39;100038.84;;;1.21;100.00
829;BME280;396;52.558;13.188;2024-02-26T07:07:07;100034.34;;;1.27;100.00
829;BME280;396;52.558;13.188;2024-02-26T07:09:33;100039.59;;;1.44;100.00
829;BME280;396;52.558;13.188;2024-02-26T07:12:00;100042.25;;;1.44;100.00
829;BME280;396;52.558;13.188;2024-02-26T07:14:28;100046.31;;;1.51;100.00
829;BME280;396;52.558;13.188;2024-02-26T07:16:55;100038.13;;;1.63;100.00
829;BME280;396;52.558;13.188;2024-02-26T07:19:21;100050.00;;;1.77;100.00
829;BME280;396;52.558;13.188;2024-02-26T07:21:48;100041.47;;;1.81;100.00
829;BME280;396;52.558;13.188;2024-02-26T07:24:15;100045.06;;;1.96;100.00
829;BME280;396;52.558;13.188;2024-02-26T07:26:41;100041.09;;;2.04;100.00
829;BME280;396;52.558;13.188;2024-02-26T07:29:08;100047.03;;;2.16;100.00
829;BME280;396;52.558;13.188;2024-02-26T07:31:36;100045.47;;;2.25;100.00
829;BME280;396;52.558;13.188;2024-02-26T07:34:02;100044.78;;;2.40;100.00
829;BME280;396;52.558;13.188;2024-02-26T07:36:29;100051.78;;;2.57;100.00
829;BME280;396;52.558;13.188;2024-02-26T07:38:56;100050.50;;;2.74;100.00
829;BME280;396;52.558;13.188;2024-02-26T07:41:22;100044.41;;;2.89;100.00
829;BME280;396;52.558;13.188;2024-02-26T07:43:49;100046.88;;;3.06;100.00
829;BME280;396;52.558;13.188;2024-02-26T07:46:15;100045.81;;;3.17;100.00
829;BME280;396;52.558;13.188;2024-02-26T07:48:43;100037.81;;;3.33;100.00
829;BME280;396;52.558;13.188;2024-02-26T07:51:12;100035.13;;;3.48;100.00
829;BME280;396;52.558;13.188;2024-02-26T07:53:38;100037.81;;;3.63;100.00
829;BME280;396;52.558;13.188;2024-02-26T07:56:05;100034.84;;;3.75;100.00
829;BME280;396;52.558;13.188;2024-02-26T07:58:33;100036.19;;;3.88;100.00
829;BME280;396;52.558;13.188;2024-02-26T08:00:59;100035.09;;;4.04;100.00
829;BME280;396;52.558;13.188;2024-02-26T08:03:26;100047.38;;;4.20;100.00
829;BME280;396;52.558;13.188;2024-02-26T08:05:54;100048.69;;;4.28;100.00
829;BME280;396;52.558;13.188;2024-02-26T08:08:20;100045.19;;;4.43;100.00
829;BME280;396;52.558;13.188;2024-02-26T08:10:46;100051.31;;;4.53;100.00
829;BME280;396;52.558;13.188;2024-02-26T08:13:13;100046.44;;;4.66;100.00
829;BME280;396;52.558;13.188;2024-02-26T08:15:40;100050.94;;;4.75;100.00
829;BME280;396;52.558;13.188;2024-02-26T08:18:07;100047.41;;;4.85;100.00
829;BME280;396;52.558;13.188;2024-02-26T08:20:34;100062.09;;;4.98;100.00
829;BME280;396;52.558;13.188;2024-02-26T08:23:01;100066.63;;;5.07;100.00
829;BME280;396;52.558;13.188;2024-02-26T08:25:28;100066.78;;;5.21;100.00
829;BME280;396;52.558;13.188;2024-02-26T08:27:55;100065.13;;;5.30;100.00
829;BME280;396;52.558;13.188;2024-02-26T08:30:21;100068.28;;;5.43;100.00
829;BME280;396;52.558;13.188;2024-02-26T08:32:48;100071.41;;;5.55;100.00
829;BME280;396;52.558;13.188;2024-02-26T08:35:15;100066.75;;;5.66;100.00
829;BME280;396;52.558;13.188;2024-02-26T08:37:44;100062.13;;;5.76;100.00
829;BME280;396;52.558;13.188;2024-02-26T08:40:12;100062.06;;;5.81;100.00
829;BME280;396;52.558;13.188;2024-02-26T08:42:39;100066.84;;;5.90;100.00
829;BME280;396;52.558;13.188;2024-02-26T08:45:07;100067.31;;;5.97;100.00
829;BME280;396;52.558;13.188;2024-02-26T08:47:33;100054.59;;;6.07;100.00
829;BME280;396;52.558;13.188;2024-02-26T08:50:00;100053.69;;;6.17;100.00
829;BME280;396;52.558;13.188;2024-02-26T08:52:27;100058.69;;;6.29;100.00
829;BME280;396;52.558;13.188;2024-02-26T08:54:54;100059.06;;;6.41;100.00
829;BME280;396;52.558;13.188;2024-02-26T08:57:21;100060.03;;;6.50;100.00
829;BME280;396;52.558;13.188;2024-02-26T08:59:48;100057.03;;;6.57;100.00
829;BME280;396;52.558;13.188;2024-02-26T09:02:16;100063.66;;;6.65;99.91
829;BME280;396;52.558;13.188;2024-02-26T09:04:43;100050.38;;;6.73;99.62
829;BME280;396;52.558;13.188;2024-02-26T09:07:09;100054.03;;;6.82;99.41
829;BME280;396;52.558;13.188;2024-02-26T09:09:36;100056.56;;;6.93;99.04
829;BME280;396;52.558;13.188;2024-02-26T09:12:03;100054.25;;;7.05;98.46
829;BME280;396;52.558;13.188;2024-02-26T09:14:31;100061.16;;;7.11;97.96
829;BME280;396;52.558;13.188;2024-02-26T09:16:58;100053.00;;;7.16;97.81
829;BME280;396;52.558;13.188;2024-02-26T09:19:25;100058.28;;;7.26;97.31
829;BME280;396;52.558;13.188;2024-02-26T09:21:53;100066.91;;;7.42;97.02
829;BME280;396;52.558;13.188;2024-02-26T09:24:22;100063.47;;;7.55;96.66
829;BME280;396;52.558;13.188;2024-02-26T09:26:49;100058.13;;;7.69;95.96
829;BME280;396;52.558;13.188;2024-02-26T09:29:16;100065.56;;;7.77;94.61
829;BME280;396;52.558;13.188;2024-02-26T09:31:44;100069.78;;;7.83;93.25
829;BME280;396;52.558;13.188;2024-02-26T09:34:12;100083.31;;;7.78;91.26
829;BME280;396;52.558;13.188;2024-02-26T09:36:39;100071.97;;;7.81;90.66
829;BME280;396;52.558;13.188;2024-02-26T09:39:05;100079.75;;;7.83;90.23
829;BME280;396;52.558;13.188;2024-02-26T09:41:37;100077.34;;;7.81;89.80
829;BME280;396;52.558;13.188;2024-02-26T09:44:04;100065.56;;;7.77;89.03
829;BME280;396;52.558;13.188;2024-02-26T09:46:31;100078.44;;;7.80;89.81
829;BME280;396;52.558;13.188;2024-02-26T09:48:59;100081.84;;;7.86;89.84
829;BME280;396;52.558;13.188;2024-02-26T09:51:26;100074.88;;;7.85;90.19
829;BME280;396;52.558;13.188;2024-02-26T09:53:54;100076.28;;;7.96;90.36
829;BME280;396;52.558;13.188;2024-02-26T09:56:23;100082.91;;;8.04;90.08
829;BME280;396;52.558;13.188;2024-02-26T09:58:50;100090.91;;;8.09;89.13
829;BME280;396;52.558;13.188;2024-02-26T10:01:20;100076.25;;;8.15;88.68
829;BME280;396;52.558;13.188;2024-02-26T10:03:52;100088.44;;;8.26;88.75
829;BME280;396;52.558;13.188;2024-02-26T10:06:23;100092.28;;;8.39;88.57
829;BME280;396;52.558;13.188;2024-02-26T10:08:51;100087.91;;;8.43;87.92
829;BME280;396;52.558;13.188;2024-02-26T10:11:18;100089.81;;;8.56;87.61
829;BME280;396;52.558;13.188;2024-02-26T10:13:45;100092.00;;;8.68;87.42
829;BME280;396;52.558;13.188;2024-02-26T10:16:12;100090.09;;;8.82;87.25
829;BME280;396;52.558;13.188;2024-02-26T10:18:45;100090.88;;;8.97;86.93
829;BME280;396;52.558;13.188;2024-02-26T10:21:12;100092.28;;;9.08;85.13
829;BME280;396;52.558;13.188;2024-02-26T10:23:42;100091.94;;;9.23;85.01
829;BME280;396;52.558;13.188;2024-02-26T10:26:10;100089.50;;;9.35;84.21
829;BME280;396;52.558;13.188;2024-02-26T10:28:37;100089.94;;;9.51;83.60
829;BME280;396;52.558;13.188;2024-02-26T10:31:03;100098.91;;;9.60;83.19
829;BME280;396;52.558;13.188;2024-02-26T10:33:32;100096.97;;;9.75;83.03
829;BME280;396;52.558;13.188;2024-02-26T10:35:59;100096.91;;;9.89;82.24
829;BME280;396;52.558;13.188;2024-02-26T10:38:26;100094.56;;;9.96;80.52
829;BME280;396;52.558;13.188;2024-02-26T10:40:54;100098.75;;;10.02;80.53
829;BME280;396;52.558;13.188;2024-02-26T10:43:20;100101.69;;;10.14;80.13
829;BME280;396;52.558;13.188;2024-02-26T10:45:47;100097.63;;;10.25;79.21
829;BME280;396;52.558;13.188;2024-02-26T10:48:14;100109.28;;;10.34;78.67
829;BME280;396;52.558;13.188;2024-02-26T10:50:42;100099.94;;;10.41;77.94
829;BME280;396;52.558;13.188;2024-02-26T10:53:13;100103.00;;;10.48;77.40
829;BME280;396;52.558;13.188;2024-02-26T10:55:43;100101.28;;;10.60;75.88
829;BME280;396;52.558;13.188;2024-02-26T10:58:13;100092.84;;;10.62;75.40
829;BME280;396;52.558;13.188;2024-02-26T11:00:41;100092.75;;;10.76;75.09
829;BME280;396;52.558;13.188;2024-02-26T11:03:08;100092.28;;;10.82;73.02
829;BME280;396;52.558;13.188;2024-02-26T11:05:35;100090.22;;;10.88;71.41
829;BME280;396;52.558;13.188;2024-02-26T11:08:04;100095.66;;;10.97;72.36
829;BME280;396;52.558;13.188;2024-02-26T11:10:31;100092.16;;;11.05;72.98
829;BME280;396;52.558;13.188;2024-02-26T11:12:59;100086.44;;;11.06;71.65
829;BME280;396;52.558;13.188;2024-02-26T11:15:29;100090.63;;;11.21;71.92
829;BME280;396;52.558;13.188;2024-02-26T11:17:58;100088.38;;;11.41;73.16
829;BME280;396;52.558;13.188;2024-02-26T11:20:28;100096.69;;;11.53;71.42
829;BME280;396;52.558;13.188;2024-02-26T11:22:55;100103.25;;;11.69;71.54
829;BME280;396;52.558;13.188;2024-02-26T11:25:22;100103.22;;;11.78;70.24
829;BME280;396;52.558;13.188;2024-02-26T11:27:52;100095.41;;;11.94;70.23
829;BME280;396;52.558;13.188;2024-02-26T11:30:23;100098.75;;;11.99;68.95
829;BME280;396;52.558;13.188;2024-02-26T11:32:53;100101.13;;;12.09;68.58
829;BME280;396;52.558;13.188;2024-02-26T11:35:20;100103.19;;;12.12;68.25
829;BME280;396;52.558;13.188;2024-02-26T11:37:56;100097.59;;;12.26;68.06
829;BME280;396;52.558;13.188;2024-02-26T11:40:24;100098.34;;;12.35;66.99
829;BME280;396;52.558;13.188;2024-02-26T11:42:51;100102.94;;;12.44;65.84
829;BME280;396;52.558;13.188;2024-02-26T11:45:50;100099.53;;;12.55;65.16
829;BME280;396;52.558;13.188;2024-02-26T11:48:23;100102.75;;;12.57;63.61
829;BME280;396;52.558;13.188;2024-02-26T11:50:51;100103.53;;;12.58;63.79
829;BME280;396;52.558;13.188;2024-02-26T11:53:26;100105.69;;;12.73;64.33
829;BME280;396;52.558;13.188;2024-02-26T11:58:58;100109.47;;;12.90;61.84
829;BME280;396;52.558;13.188;2024-02-26T12:01:42;100106.09;;;12.93;60.24
829;BME280;396;52.558;13.188;2024-02-26T12:04:16;100101.50;;;12.84;60.84
829;BME280;396;52.558;13.188;2024-02-26T12:06:50;100106.94;;;12.84;59.84
829;BME280;396;52.558;13.188;2024-02-26T12:09:37;100105.91;;;12.98;60.70
829;BME280;396;52.558;13.188;2024-02-26T12:12:05;100105.38;;;13.04;59.85
829;BME280;396;52.558;13.188;2024-02-26T12:14:38;100105.50;;;13.08;59.20
829;BME280;396;52.558;13.188;2024-02-26T12:17:04;100099.69;;;13.18;59.60
829;BME280;396;52.558;13.188;2024-02-26T12:19:34;100096.41;;;13.33;59.27
829;BME280;396;52.558;13.188;2024-02-26T12:22:02;100098.94;;;13.59;58.94
829;BME280;396;52.558;13.188;2024-02-26T12:24:28;100111.91;;;13.96;58.06
829;BME280;396;52.558;13.188;2024-02-26T12:26:55;100096.56;;;14.36;57.16
829;BME280;396;52.558;13.188;2024-02-26T12:29:23;100104.81;;;14.61;55.68
829;BME280;396;52.558;13.188;2024-02-26T12:31:50;100103.69;;;14.74;55.68
829;BME280;396;52.558;13.188;2024-02-26T12:34:16;100114.13;;;14.84;54.01
829;BME280;396;52.558;13.188;2024-02-26T12:36:44;100115.72;;;14.98;53.95
829;BME280;396;52.558;13.188;2024-02-26T12:39:11;100111.94;;;15.02;52.71
829;BME280;396;52.558;13.188;2024-02-26T12:41:38;100113.66;;;15.07;53.47
829;BME280;396;52.558;13.188;2024-02-26T12:44:04;100112.63;;;15.11;52.60
829;BME280;396;52.558;13.188;2024-02-26T12:46:32;100111.16;;;15.14;52.28
829;BME280;396;52.558;13.188;2024-02-26T12:48:59;100111.41;;;14.97;50.37
829;BME280;396;52.558;13.188;2024-02-26T12:51:26;100118.00;;;14.83;51.72
829;BME280;396;52.558;13.188;2024-02-26T12:53:56;100124.00;;;14.77;52.34
829;BME280;396;52.558;13.188;2024-02-26T12:56:23;100122.84;;;14.78;50.30
829;BME280;396;52.558;13.188;2024-02-26T12:58:50;100119.91;;;14.58;51.18
829;BME280;396;52.558;13.188;2024-02-26T13:01:23;100117.69;;;14.39;51.08
829;BME280;396;52.558;13.188;2024-02-26T13:03:50;100109.13;;;14.29;52.61
829;BME280;396;52.558;13.188;2024-02-26T13:06:18;100118.06;;;14.05;53.77
829;BME280;396;52.558;13.188;2024-02-26T13:08:45;100111.25;;;14.11;54.03
829;BME280;396;52.558;13.188;2024-02-26T13:11:13;100105.56;;;14.04;53.68
829;BME280;396;52.558;13.188;2024-02-26T13:13:40;100096.88;;;13.89;52.10
829;BME280;396;52.558;13.188;2024-02-26T13:16:09;100105.88;;;13.90;52.31
829;BME280;396;52.558;13.188;2024-02-26T13:18:36;100099.03;;;13.63;50.94
829;BME280;396;52.558;13.188;2024-02-26T13:21:07;100113.91;;;13.45;51.17
829;BME280;396;52.558;13.188;2024-02-26T13:23:35;100109.34;;;13.36;51.47
829;BME280;396;52.558;13.188;2024-02-26T13:26:01;100111.34;;;13.19;50.87
829;BME280;396;52.558;13.188;2024-02-26T13:28:29;100107.94;;;13.01;51.50
829;BME280;396;52.558;13.188;2024-02-26T13:30:57;100111.34;;;12.98;51.39
829;BME280;396;52.558;13.188;2024-02-26T13:33:26;100115.03;;;12.93;51.34
829;BME280;396;52.558;13.188;2024-02-26T13:35:54;100115.53;;;12.86;51.27
829;BME280;396;52.558;13.188;2024-02-26T13:38:21;100111.03;;;12.91;52.29